Time;durP1;ratioP1;P1;durP2;ratioP2;P2;SDS_P1;SDS_P2;PMS_P1;PMS_P2;Temp;Humidity;BMP_temperature;BMP_pressure;BME280_temperature;BME280_humidity;BME280_pressure;Samples;Min_cycle;Max_cycle;Signal;HPM_P1;HPM_P2
2023/04/22 00:00:39;;;;;;;7.72;4.90;;;;;;;;;;5006867;28;20473;-80
2023/04/22 00:03:07;;;;;;;8.95;5.63;;;;;;;;;;5005772;28;20092;-79
2023/04/22 00:05:33;;;;;;;6.85;4.95;;;;;;;;;;5010965;28;20030;-79
2023/04/22 00:07:59;;;;;;;8.20;5.28;;;;;;;;;;4999572;28;20030;-80
2023/04/22 00:10:26;;;;;;;8.40;5.10;;;;;;;;;;4999112;28;20519;-80
2023/04/22 00:12:52;;;;;;;7.70;5.40;;;;;;;;;;4998839;28;20634;-80
2023/04/22 00:15:20;;;;;;;7.25;5.13;;;;;;;;;;5019239;28;20026;-79
2023/04/22 00:17:47;;;;;;;11.73;5.60;;;;;;;;;;5002267;28;20062;-80
2023/04/22 00:20:13;;;;;;;8.77;4.70;;;;;;;;;;5018364;28;20030;-81
2023/04/22 00:22:40;;;;;;;6.72;4.55;;;;;;;;;;5002554;28;20038;-79
2023/04/22 00:25:07;;;;;;;6.53;4.25;;;;;;;;;;5019217;28;20461;-80
2023/04/22 00:27:33;;;;;;;6.57;4.68;;;;;;;;;;5017441;28;20049;-78
2023/04/22 00:29:58;;;;;;;4.72;4.03;;;;;;;;;;5001444;28;20026;-79
2023/04/22 00:32:25;;;;;;;9.77;4.07;;;;;;;;;;5004261;28;20456;-80
2023/04/22 00:34:51;;;;;;;10.10;4.18;;;;;;;;;;4999974;28;20030;-78
2023/04/22 00:37:19;;;;;;;6.78;4.55;;;;;;;;;;5017081;28;20034;-80
2023/04/22 00:39:45;;;;;;;8.95;4.85;;;;;;;;;;5000801;28;20056;-79
2023/04/22 00:42:15;;;;;;;6.20;4.35;;;;;;;;;;4984845;28;20110;-80
2023/04/22 00:44:41;;;;;;;6.75;3.70;;;;;;;;;;5016436;28;20174;-80
2023/04/22 00:47:11;;;;;;;7.15;4.85;;;;;;;;;;4996538;28;20030;-81
2023/04/22 00:49:38;;;;;;;7.50;4.85;;;;;;;;;;5011775;28;20037;-81
2023/04/22 00:52:05;;;;;;;8.48;4.38;;;;;;;;;;5001467;28;20026;-80
2023/04/22 00:54:33;;;;;;;5.53;4.15;;;;;;;;;;5015543;28;20046;-80
2023/04/22 00:56:59;;;;;;;5.30;3.60;;;;;;;;;;5001335;28;20029;-80
2023/04/22 00:59:25;;;;;;;5.60;3.90;;;;;;;;;;5006460;28;20066;-80
2023/04/22 01:01:52;;;;;;;6.47;4.20;;;;;;;;;;5006673;28;20030;-80
2023/04/22 01:04:19;;;;;;;4.95;3.97;;;;;;;;;;5020741;28;20041;-80
2023/04/22 01:06:47;;;;;;;9.85;4.07;;;;;;;;;;5020726;28;20022;-81
2023/04/22 01:09:15;;;;;;;5.15;3.65;;;;;;;;;;5000666;28;20102;-81
2023/04/22 01:11:41;;;;;;;5.00;3.92;;;;;;;;;;5001319;28;20192;-79
2023/04/22 01:14:07;;;;;;;7.68;4.28;;;;;;;;;;5001830;28;20067;-81
2023/04/22 01:16:34;;;;;;;7.68;4.07;;;;;;;;;;5002088;28;20035;-81
2023/04/22 01:19:00;;;;;;;5.03;3.75;;;;;;;;;;4999436;28;20449;-79
2023/04/22 01:21:27;;;;;;;4.72;3.47;;;;;;;;;;4986260;28;20030;-80
2023/04/22 01:23:53;;;;;;;8.50;3.60;;;;;;;;;;4997790;28;20045;-80
2023/04/22 01:26:19;;;;;;;4.85;3.75;;;;;;;;;;5014921;28;20014;-80
2023/04/22 01:28:45;;;;;;;5.88;3.80;;;;;;;;;;4999669;28;20054;-80
2023/04/22 01:31:11;;;;;;;6.28;3.83;;;;;;;;;;5008187;28;20049;-80
2023/04/22 01:33:40;;;;;;;4.28;3.55;;;;;;;;;;5018936;28;20097;-80
2023/04/22 01:36:06;;;;;;;5.00;3.70;;;;;;;;;;5018215;28;20502;-80
2023/04/22 01:38:33;;;;;;;7.75;3.65;;;;;;;;;;5004151;28;20535;-80
2023/04/22 01:41:02;;;;;;;6.93;3.70;;;;;;;;;;5019964;28;20022;-80
2023/04/22 01:43:29;;;;;;;5.22;3.80;;;;;;;;;;5020031;28;20042;-80
2023/04/22 01:45:56;;;;;;;5.88;4.20;;;;;;;;;;5019039;28;20049;-80
2023/04/22 01:48:23;;;;;;;5.32;3.65;;;;;;;;;;5019798;28;20042;-80
2023/04/22 01:50:49;;;;;;;5.88;4.10;;;;;;;;;;4986448;28;20034;-80
2023/04/22 01:53:16;;;;;;;5.60;3.83;;;;;;;;;;5014362;28;20041;-80
2023/04/22 01:55:43;;;;;;;4.63;3.88;;;;;;;;;;4981467;28;20025;-80
2023/04/22 01:58:12;;;;;;;7.18;4.50;;;;;;;;;;4995493;28;20038;-80
2023/04/22 02:00:38;;;;;;;6.55;4.38;;;;;;;;;;4979589;28;20037;-80
2023/04/22 02:03:04;;;;;;;6.18;4.45;;;;;;;;;;4995984;28;20030;-80
2023/04/22 02:05:30;;;;;;;5.43;4.35;;;;;;;;;;5000698;28;20046;-80
2023/04/22 02:07:56;;;;;;;5.18;4.30;;;;;;;;;;5019900;28;20030;-81
2023/04/22 02:10:22;;;;;;;5.07;4.25;;;;;;;;;;5000617;28;20036;-80
2023/04/22 02:12:48;;;;;;;7.10;4.53;;;;;;;;;;5000569;28;20511;-80
2023/04/22 02:15:14;;;;;;;5.78;4.55;;;;;;;;;;5016890;28;20037;-80
2023/04/22 02:17:42;;;;;;;7.63;4.95;;;;;;;;;;5014795;28;20038;-80
2023/04/22 02:20:11;;;;;;;9.05;4.57;;;;;;;;;;4997608;28;20037;-80
2023/04/22 02:22:37;;;;;;;6.70;4.60;;;;;;;;;;4996633;28;20030;-79
2023/04/22 02:25:04;;;;;;;6.72;4.22;;;;;;;;;;4997575;28;20030;-80
2023/04/22 02:27:30;;;;;;;7.05;5.00;;;;;;;;;;4980785;28;20133;-80
2023/04/22 02:29:56;;;;;;;7.63;4.78;;;;;;;;;;5011407;28;20058;-79
2023/04/22 02:32:22;;;;;;;6.15;4.50;;;;;;;;;;5008436;28;20093;-80
2023/04/22 02:34:47;;;;;;;6.18;4.38;;;;;;;;;;5008983;28;20034;-80
2023/04/22 02:37:13;;;;;;;6.32;4.40;;;;;;;;;;5009221;28;20030;-80
2023/04/22 02:39:39;;;;;;;10.23;4.88;;;;;;;;;;4994611;28;20096;-80
2023/04/22 02:42:05;;;;;;;5.68;4.45;;;;;;;;;;5009219;28;20563;-81
2023/04/22 02:44:31;;;;;;;7.90;4.78;;;;;;;;;;5009183;28;20034;-80
2023/04/22 02:46:57;;;;;;;8.20;4.90;;;;;;;;;;5009070;28;20022;-80
2023/04/22 02:49:23;;;;;;;7.70;4.60;;;;;;;;;;4958527;28;20065;-80
2023/04/22 02:51:51;;;;;;;6.93;5.07;;;;;;;;;;4992195;28;20031;-80
2023/04/22 02:54:17;;;;;;;6.05;4.70;;;;;;;;;;4993338;28;20018;-80
2023/04/22 02:56:43;;;;;;;6.53;5.25;;;;;;;;;;4994767;28;20081;-79
2023/04/22 02:59:09;;;;;;;7.10;4.68;;;;;;;;;;5006147;28;20423;-80
2023/04/22 03:01:35;;;;;;;5.25;4.57;;;;;;;;;;4990328;28;20093;-80
2023/04/22 03:04:04;;;;;;;7.13;5.07;;;;;;;;;;4990571;28;20061;-80
2023/04/22 03:06:30;;;;;;;6.57;5.30;;;;;;;;;;5007082;28;20129;-80
2023/04/22 03:08:57;;;;;;;6.10;5.18;;;;;;;;;;5003516;28;20030;-80
2023/04/22 03:11:23;;;;;;;6.50;5.00;;;;;;;;;;5005663;28;20034;-80
2023/04/22 03:13:48;;;;;;;9.88;5.55;;;;;;;;;;4990556;28;20050;-79
2023/04/22 03:16:16;;;;;;;8.25;5.55;;;;;;;;;;5009874;28;20066;-79
2023/04/22 03:18:42;;;;;;;6.22;5.22;;;;;;;;;;4977906;28;20130;-80
2023/04/22 03:21:09;;;;;;;6.55;5.07;;;;;;;;;;5012854;28;20034;-80
2023/04/22 03:23:35;;;;;;;9.70;5.57;;;;;;;;;;4998855;28;20041;-79
2023/04/22 03:26:01;;;;;;;7.25;5.47;;;;;;;;;;5014661;28;20094;-81
2023/04/22 03:28:27;;;;;;;6.95;5.22;;;;;;;;;;4996075;28;20050;-80
2023/04/22 03:30:53;;;;;;;12.05;6.18;;;;;;;;;;4998534;28;20031;-80
2023/04/22 03:33:19;;;;;;;7.55;5.78;;;;;;;;;;4997016;28;20484;-80
2023/04/22 03:36:02;;;;;;;;;;;;;;;;;;4997242;28;20038;-80
2023/04/22 03:38:28;;;;;;;8.98;5.82;;;;;;;;;;5013353;28;19924;-79
2023/04/22 03:40:54;;;;;;;9.02;6.00;;;;;;;;;;4998414;28;20342;-80
2023/04/22 03:43:32;;;;;;;11.55;6.50;;;;;;;;;;4999128;28;20048;-79
2023/04/22 03:46:07;;;;;;;9.32;5.97;;;;;;;;;;4999646;28;20062;-80
2023/04/22 03:48:37;;;;;;;9.60;6.43;;;;;;;;;;4998440;28;20041;-79
2023/04/22 03:51:15;;;;;;;9.48;6.30;;;;;;;;;;4999985;28;20042;-80
2023/04/22 03:53:41;;;;;;;8.77;6.43;;;;;;;;;;5015238;28;20037;-80
2023/04/22 03:56:10;;;;;;;10.07;6.40;;;;;;;;;;4996571;28;20488;-79
2023/04/22 03:58:42;;;;;;;8.65;6.57;;;;;;;;;;5011863;28;20045;-80
2023/04/22 04:01:10;;;;;;;9.68;6.95;;;;;;;;;;4994596;28;20034;-80
2023/04/22 04:03:37;;;;;;;8.07;5.38;;;;;;;;;;4994019;28;20026;-80
2023/04/22 04:06:05;;;;;;;8.25;6.03;;;;;;;;;;5010722;28;20119;-80
2023/04/22 04:08:31;;;;;;;9.25;6.68;;;;;;;;;;4995542;28;20029;-80
2023/04/22 04:10:58;;;;;;;10.15;6.95;;;;;;;;;;5011019;28;20556;-80
2023/04/22 04:13:24;;;;;;;11.00;7.57;;;;;;;;;;4993744;28;20029;-80
2023/04/22 04:16:09;;;;;;;9.82;7.32;;;;;;;;;;4995876;28;20061;-80
2023/04/22 04:18:39;;;;;;;13.18;7.97;;;;;;;;;;4994741;28;20035;-80
2023/04/22 04:21:05;;;;;;;9.88;7.30;;;;;;;;;;4993693;28;20026;-80
2023/04/22 04:23:36;;;;;;;9.18;7.63;;;;;;;;;;5014972;28;20576;-78
2023/04/22 04:26:04;;;;;;;10.13;7.82;;;;;;;;;;4988330;28;20057;-80
2023/04/22 04:28:34;;;;;;;11.82;7.95;;;;;;;;;;4992661;28;20030;-80
2023/04/22 04:31:02;;;;;;;9.48;7.60;;;;;;;;;;4994024;28;20134;-80
2023/04/22 04:33:30;;;;;;;11.60;7.60;;;;;;;;;;4992150;28;20146;-79
2023/04/22 04:35:58;;;;;;;13.90;8.30;;;;;;;;;;4994408;28;20440;-80
2023/04/22 04:38:28;;;;;;;10.90;7.30;;;;;;;;;;4993438;28;20065;-79
2023/04/22 04:40:56;;;;;;;11.93;7.75;;;;;;;;;;4992740;28;20033;-81
2023/04/22 04:43:24;;;;;;;13.77;8.00;;;;;;;;;;4992686;28;20018;-80
2023/04/22 04:46:01;;;;;;;13.30;7.38;;;;;;;;;;5009228;28;20041;-80
2023/04/22 04:48:34;;;;;;;9.98;7.35;;;;;;;;;;4977252;28;20574;-80
2023/04/22 04:51:06;;;;;;;9.05;6.65;;;;;;;;;;5009104;28;20095;-80
2023/04/22 04:53:37;;;;;;;8.80;6.88;;;;;;;;;;4992854;28;20098;-80
2023/04/22 04:56:04;;;;;;;11.40;7.00;;;;;;;;;;5009124;28;20127;-80
2023/04/22 04:58:30;;;;;;;10.25;7.40;;;;;;;;;;5008539;28;20033;-80
2023/04/22 05:01:10;;;;;;;14.05;7.32;;;;;;;;;;4992480;28;20125;-80
2023/04/22 05:03:38;;;;;;;10.32;6.50;;;;;;;;;;4994060;28;20129;-80
2023/04/22 05:06:04;;;;;;;12.38;6.28;;;;;;;;;;4992284;28;20069;-81
2023/04/22 05:08:30;;;;;;;7.43;6.00;;;;;;;;;;4992217;28;20030;-80
2023/04/22 05:11:04;;;;;;;9.43;6.75;;;;;;;;;;4992152;28;20029;-80
2023/04/22 05:13:30;;;;;;;11.07;7.35;;;;;;;;;;4993326;28;20032;-80
2023/04/22 05:15:56;;;;;;;12.02;7.45;;;;;;;;;;4991492;28;20121;-80
2023/04/22 05:18:23;;;;;;;15.30;7.38;;;;;;;;;;5008007;28;20030;-80
2023/04/22 05:20:49;;;;;;;9.38;6.90;;;;;;;;;;4991838;28;20026;-80
2023/04/22 05:23:16;;;;;;;10.32;7.57;;;;;;;;;;5008494;28;20026;-81
2023/04/22 05:25:42;;;;;;;9.82;6.97;;;;;;;;;;5011156;28;20030;-80
2023/04/22 05:28:13;;;;;;;11.57;7.72;;;;;;;;;;5012100;28;20038;-80
2023/04/22 05:30:50;;;;;;;8.60;7.00;;;;;;;;;;4991081;28;20022;-79
2023/04/22 05:33:16;;;;;;;9.38;6.32;;;;;;;;;;5012473;28;20026;-79
2023/04/22 05:35:43;;;;;;;9.52;7.28;;;;;;;;;;4995770;28;20026;-79
2023/04/22 05:38:09;;;;;;;9.63;6.85;;;;;;;;;;5010892;28;20396;-80
2023/04/22 05:40:39;;;;;;;8.27;6.93;;;;;;;;;;4994331;28;20018;-81
2023/04/22 05:43:07;;;;;;;12.48;8.23;;;;;;;;;;5011498;28;20033;-80
2023/04/22 05:45:34;;;;;;;8.95;7.18;;;;;;;;;;4993563;28;20022;-81
2023/04/22 05:48:01;;;;;;;9.32;7.50;;;;;;;;;;5008737;28;20026;-80
2023/04/22 05:50:31;;;;;;;10.48;7.28;;;;;;;;;;5004254;28;20113;-82
2023/04/22 05:53:04;;;;;;;8.67;7.47;;;;;;;;;;4997654;28;20038;-80
2023/04/22 05:55:30;;;;;;;10.43;7.75;;;;;;;;;;5012027;28;20117;-80
2023/04/22 05:57:56;;;;;;;12.32;8.90;;;;;;;;;;4976663;28;20121;-79
2023/04/22 06:00:33;;;;;;;17.60;9.27;;;;;;;;;;4982174;28;20037;-79
2023/04/22 06:03:18;;;;;;;14.05;7.93;;;;;;;;;;5008483;28;20117;-78
2023/04/22 06:05:44;;;;;;;11.27;8.13;;;;;;;;;;4991341;28;20384;-80
2023/04/22 06:08:11;;;;;;;11.88;8.25;;;;;;;;;;4991140;28;20046;-79
2023/04/22 06:10:37;;;;;;;10.45;7.57;;;;;;;;;;4991193;28;20519;-79
2023/04/22 06:13:03;;;;;;;15.07;8.35;;;;;;;;;;5007986;28;20050;-79
2023/04/22 06:15:30;;;;;;;11.68;6.88;;;;;;;;;;4991667;28;20121;-80
2023/04/22 06:17:58;;;;;;;9.13;7.20;;;;;;;;;;5011789;28;20018;-80
2023/04/22 06:20:25;;;;;;;8.82;7.32;;;;;;;;;;5013916;28;20032;-80
2023/04/22 06:22:52;;;;;;;13.52;7.93;;;;;;;;;;4976606;28;20120;-79
2023/04/22 06:25:18;;;;;;;11.98;8.57;;;;;;;;;;5006745;28;20112;-79
2023/04/22 06:27:46;;;;;;;16.23;9.13;;;;;;;;;;4990696;28;20034;-80
2023/04/22 06:30:14;;;;;;;15.63;10.43;;;;;;;;;;4990730;28;20038;-78
2023/04/22 06:32:40;;;;;;;15.40;11.10;;;;;;;;;;4993321;28;20358;-78
2023/04/22 06:35:06;;;;;;;12.65;9.85;;;;;;;;;;5015249;28;20033;-78
2023/04/22 06:37:32;;;;;;;12.38;9.13;;;;;;;;;;4994730;28;20046;-81
2023/04/22 06:39:59;;;;;;;11.02;9.05;;;;;;;;;;5006572;28;20046;-79
2023/04/22 06:42:45;;;;;;;10.00;7.95;;;;;;;;;;4991563;28;20044;-79
2023/04/22 06:45:30;;;;;;;13.73;9.20;;;;;;;;;;4995786;28;20134;-80
2023/04/22 06:48:28;;;;;;;21.30;9.15;;;;;;;;;;4981779;28;20081;-80
2023/04/22 06:51:13;;;;;;;13.23;9.10;;;;;;;;;;4995951;28;20141;-80
2023/04/22 06:53:40;;;;;;;10.45;8.32;;;;;;;;;;4998786;28;20402;-80
2023/04/22 06:56:06;;;;;;;11.18;7.65;;;;;;;;;;4997459;28;20026;-82
2023/04/22 06:58:32;;;;;;;13.07;8.18;;;;;;;;;;4970575;28;20567;-79
2023/04/22 07:00:58;;;;;;;9.75;7.40;;;;;;;;;;4986092;28;20265;-78
2023/04/22 07:03:24;;;;;;;13.95;8.68;;;;;;;;;;5004349;28;20030;-80
2023/04/22 07:05:59;;;;;;;9.13;7.40;;;;;;;;;;4975651;28;20093;-81
2023/04/22 07:08:26;;;;;;;7.88;6.70;;;;;;;;;;5020788;28;20084;-81
2023/04/22 07:10:53;;;;;;;13.27;7.90;;;;;;;;;;5004869;28;20471;-82
2023/04/22 07:13:38;;;;;;;9.82;6.22;;;;;;;;;;5022079;28;20520;-82
2023/04/22 07:16:13;;;;;;;12.23;6.20;;;;;;;;;;4992795;28;20038;-83
2023/04/22 07:18:38;;;;;;;12.18;6.85;;;;;;;;;;5013413;28;20457;-80
2023/04/22 07:21:04;;;;;;;10.75;7.20;;;;;;;;;;4994967;28;20022;-80
2023/04/22 07:23:31;;;;;;;9.68;6.13;;;;;;;;;;5006002;28;20038;-80
2023/04/22 07:25:57;;;;;;;22.05;7.03;;;;;;;;;;4992756;28;20092;-80
2023/04/22 07:28:23;;;;;;;9.95;6.65;;;;;;;;;;4993897;28;20045;-80
2023/04/22 07:30:49;;;;;;;9.85;6.05;;;;;;;;;;4994004;28;20034;-80
2023/04/22 07:33:16;;;;;;;6.93;6.20;;;;;;;;;;4976110;28;20034;-81
2023/04/22 07:35:41;;;;;;;7.38;5.82;;;;;;;;;;4992126;28;20504;-82
2023/04/22 07:38:07;;;;;;;6.53;5.47;;;;;;;;;;4993672;28;20035;-80
2023/04/22 07:40:33;;;;;;;7.25;5.13;;;;;;;;;;4996334;28;20042;-81
2023/04/22 07:43:00;;;;;;;10.82;5.90;;;;;;;;;;5012396;28;20038;-81
2023/04/22 07:45:26;;;;;;;8.10;5.65;;;;;;;;;;4995099;28;20128;-82
2023/04/22 07:47:53;;;;;;;6.80;5.63;;;;;;;;;;4995657;28;20893;-83
2023/04/22 07:50:19;;;;;;;9.27;6.00;;;;;;;;;;5000994;28;20484;-82
2023/04/22 07:52:45;;;;;;;8.57;5.70;;;;;;;;;;4997179;28;20030;-81
2023/04/22 07:55:10;;;;;;;8.57;5.97;;;;;;;;;;4993994;28;20510;-81
2023/04/22 07:57:37;;;;;;;10.02;6.40;;;;;;;;;;4995316;28;20045;-80
2023/04/22 08:00:09;;;;;;;8.75;5.45;;;;;;;;;;4995114;28;20361;-80
2023/04/22 08:02:38;;;;;;;9.57;6.35;;;;;;;;;;4995554;28;20981;-81
2023/04/22 08:05:04;;;;;;;8.32;5.65;;;;;;;;;;4995706;28;20062;-82
2023/04/22 08:07:29;;;;;;;8.32;5.93;;;;;;;;;;4994137;28;20485;-81
2023/04/22 08:10:00;;;;;;;8.50;6.15;;;;;;;;;;4995351;28;20034;-81
2023/04/22 08:12:26;;;;;;;10.43;6.70;;;;;;;;;;4993903;28;20058;-81
2023/04/22 08:14:51;;;;;;;13.48;6.28;;;;;;;;;;4994816;28;20030;-81
2023/04/22 08:17:20;;;;;;;6.97;5.63;;;;;;;;;;4996676;28;20052;-80
2023/04/22 08:19:47;;;;;;;6.75;4.90;;;;;;;;;;4996751;28;20484;-81
2023/04/22 08:22:14;;;;;;;6.43;4.80;;;;;;;;;;4995582;28;20038;-81
2023/04/22 08:24:41;;;;;;;5.47;4.13;;;;;;;;;;4995212;28;20493;-86
2023/04/22 08:27:08;;;;;;;4.95;4.13;;;;;;;;;;4994637;28;20045;-86
2023/04/22 08:29:33;;;;;;;7.03;4.60;;;;;;;;;;4996060;28;20392;-84
2023/04/22 08:32:00;;;;;;;7.20;4.28;;;;;;;;;;4994991;28;20038;-79
2023/04/22 08:34:26;;;;;;;7.63;5.40;;;;;;;;;;4994927;28;20033;-82
2023/04/22 08:36:55;;;;;;;5.90;4.25;;;;;;;;;;4994148;28;20036;-82
2023/04/22 08:39:21;;;;;;;5.90;4.35;;;;;;;;;;4995473;28;20026;-83
2023/04/22 08:41:49;;;;;;;7.03;4.60;;;;;;;;;;4993425;28;20046;-82
2023/04/22 08:44:15;;;;;;;8.18;4.97;;;;;;;;;;4994552;28;20026;-80
2023/04/22 08:46:47;;;;;;;5.68;4.20;;;;;;;;;;4994595;28;20031;-80
2023/04/22 08:49:17;;;;;;;5.45;4.32;;;;;;;;;;4994501;28;20045;-81
2023/04/22 08:51:45;;;;;;;5.30;3.88;;;;;;;;;;4993332;28;20032;-82
2023/04/22 08:54:11;;;;;;;5.65;4.25;;;;;;;;;;4994585;28;20128;-82
2023/04/22 08:56:43;;;;;;;7.60;4.10;;;;;;;;;;4960110;28;20027;-80
2023/04/22 08:59:12;;;;;;;5.35;4.25;;;;;;;;;;4993280;28;20133;-82
2023/04/22 09:01:40;;;;;;;6.50;3.60;;;;;;;;;;4995485;28;20041;-84
2023/04/22 09:04:08;;;;;;;4.65;3.50;;;;;;;;;;5012248;28;20053;-81
2023/04/22 09:06:33;;;;;;;7.07;4.43;;;;;;;;;;4994055;28;20495;-82
2023/04/22 09:09:02;;;;;;;4.20;3.67;;;;;;;;;;4994158;28;20027;-83
2023/04/22 09:11:30;;;;;;;7.20;4.13;;;;;;;;;;5009096;28;20561;-85
2023/04/22 09:13:57;;;;;;;7.93;4.38;;;;;;;;;;4996789;28;20032;-81
2023/04/22 09:16:23;;;;;;;7.05;4.68;;;;;;;;;;4997588;28;20039;-82
2023/04/22 09:18:50;;;;;;;6.43;4.55;;;;;;;;;;4975477;28;20044;-83
2023/04/22 09:21:16;;;;;;;7.00;4.32;;;;;;;;;;4991929;28;20046;-81
2023/04/22 09:23:49;;;;;;;5.15;4.45;;;;;;;;;;4975412;28;20030;-84
2023/04/22 09:26:20;;;;;;;6.38;4.28;;;;;;;;;;4990959;28;20423;-81
2023/04/22 09:28:58;;;;;;;8.00;4.60;;;;;;;;;;4991391;28;20049;-81
2023/04/22 09:31:24;;;;;;;6.90;4.30;;;;;;;;;;4992189;28;20036;-84
2023/04/22 09:33:52;;;;;;;7.70;5.25;;;;;;;;;;4994145;28;20032;-83
2023/04/22 09:36:26;;;;;;;5.80;4.40;;;;;;;;;;4994524;28;20038;-82
2023/04/22 09:39:03;;;;;;;6.22;4.22;;;;;;;;;;4993324;28;20097;-84
2023/04/22 09:41:32;;;;;;;7.03;4.22;;;;;;;;;;4995184;28;20126;-83
2023/04/22 09:44:04;;;;;;;4.97;4.38;;;;;;;;;;4992998;28;20026;-85
2023/04/22 09:46:32;;;;;;;6.93;4.53;;;;;;;;;;4995012;28;20058;-83
2023/04/22 09:48:58;;;;;;;5.28;3.88;;;;;;;;;;4994284;28;20041;-83
2023/04/22 09:51:29;;;;;;;5.78;4.10;;;;;;;;;;4993886;28;20456;-83
2023/04/22 09:54:00;;;;;;;4.78;3.78;;;;;;;;;;4996010;28;20042;-86
2023/04/22 09:56:49;;;;;;;5.57;4.10;;;;;;;;;;5009051;28;20034;-84
2023/04/22 09:59:23;;;;;;;5.90;4.03;;;;;;;;;;4990964;28;20088;-85
2023/04/22 10:01:55;;;;;;;8.45;4.70;;;;;;;;;;5006236;28;20045;-83
2023/04/22 10:04:24;;;;;;;8.15;4.60;;;;;;;;;;4990997;28;20049;-85
2023/04/22 10:06:51;;;;;;;6.05;4.63;;;;;;;;;;4975088;28;20033;-85
2023/04/22 10:09:19;;;;;;;5.63;4.65;;;;;;;;;;4996488;28;20030;-83
2023/04/22 10:11:47;;;;;;;5.03;4.20;;;;;;;;;;4997616;28;20072;-83
2023/04/22 10:14:13;;;;;;;5.22;4.25;;;;;;;;;;5002323;28;20045;-82
2023/04/22 10:16:45;;;;;;;6.10;4.70;;;;;;;;;;4996976;28;20030;-82
2023/04/22 10:19:19;;;;;;;6.80;4.60;;;;;;;;;;4996847;28;20034;-83
2023/04/22 10:21:52;;;;;;;6.10;4.30;;;;;;;;;;4997304;28;20030;-82
2023/04/22 10:24:20;;;;;;;5.20;4.10;;;;;;;;;;4994309;28;20046;-86
2023/04/22 10:26:50;;;;;;;5.82;4.53;;;;;;;;;;4994363;28;20031;-85
2023/04/22 10:29:18;;;;;;;5.13;4.45;;;;;;;;;;4993103;28;20125;-85
2023/04/22 10:32:04;;;;;;;6.43;4.50;;;;;;;;;;5013934;28;20026;-85
2023/04/22 10:34:31;;;;;;;7.13;4.63;;;;;;;;;;5014148;28;20049;-84
2023/04/22 10:36:58;;;;;;;5.97;4.38;;;;;;;;;;4997611;28;20050;-87
2023/04/22 10:39:27;;;;;;;6.38;4.45;;;;;;;;;;4998195;28;20034;-83
2023/04/22 10:41:55;;;;;;;5.30;3.83;;;;;;;;;;4998188;28;20488;-84
2023/04/22 10:44:22;;;;;;;6.38;4.65;;;;;;;;;;4998160;28;20042;-83
2023/04/22 10:46:53;;;;;;;5.22;4.35;;;;;;;;;;4997117;28;20022;-83
2023/04/22 10:49:24;;;;;;;6.10;4.15;;;;;;;;;;4998519;28;20504;-83
2023/04/22 10:51:59;;;;;;;7.47;4.47;;;;;;;;;;4997123;28;20038;-83
2023/04/22 10:54:27;;;;;;;5.53;3.80;;;;;;;;;;4995094;28;20046;-84
2023/04/22 10:57:06;;;;;;;4.00;2.92;;;;;;;;;;4996239;28;20038;-85
2023/04/22 10:59:52;;;;;;;4.35;3.28;;;;;;;;;;4999943;28;20037;-84
2023/04/22 11:02:19;;;;;;;4.95;3.40;;;;;;;;;;5020415;28;20042;-85
2023/04/22 11:04:46;;;;;;;4.00;3.42;;;;;;;;;;4997003;28;20036;-84
2023/04/22 11:07:25;;;;;;;4.00;3.08;;;;;;;;;;4997541;28;20045;-83
2023/04/22 11:10:08;;;;;;;4.55;3.85;;;;;;;;;;4999264;28;20127;-83
2023/04/22 11:12:34;;;;;;;5.68;3.65;;;;;;;;;;4997542;28;20113;-81
2023/04/22 11:15:16;;;;;;;4.32;3.47;;;;;;;;;;4998850;28;20050;-80
2023/04/22 11:17:45;;;;;;;5.43;4.05;;;;;;;;;;4996802;28;20389;-83
2023/04/22 11:20:12;;;;;;;5.07;3.45;;;;;;;;;;4997325;28;20093;-82
2023/04/22 11:22:41;;;;;;;4.97;3.72;;;;;;;;;;4998212;28;20127;-85
2023/04/22 11:25:11;;;;;;;6.38;4.25;;;;;;;;;;4998171;28;20029;-83
2023/04/22 11:27:39;;;;;;;4.57;3.50;;;;;;;;;;4997846;28;20061;-83
2023/04/22 11:30:07;;;;;;;7.38;5.22;;;;;;;;;;5000199;28;20022;-83
2023/04/22 11:32:34;;;;;;;7.47;3.90;;;;;;;;;;5015106;28;20066;-82
2023/04/22 11:35:05;;;;;;;5.30;4.00;;;;;;;;;;4997946;28;20484;-83
2023/04/22 11:37:44;;;;;;;6.25;3.88;;;;;;;;;;4998061;28;20046;-83
2023/04/22 11:40:12;;;;;;;6.80;4.82;;;;;;;;;;5014760;28;20133;-85
2023/04/22 11:42:39;;;;;;;5.22;3.95;;;;;;;;;;5002077;28;20025;-85
2023/04/22 11:45:06;;;;;;;6.53;4.35;;;;;;;;;;5015849;28;20049;-84
2023/04/22 11:47:33;;;;;;;6.45;4.32;;;;;;;;;;4998469;28;20104;-84
2023/04/22 11:50:03;;;;;;;5.07;4.05;;;;;;;;;;5007699;28;20038;-85
2023/04/22 11:52:50;;;;;;;6.07;4.22;;;;;;;;;;5015765;28;20048;-84
2023/04/22 11:55:35;;;;;;;5.18;3.95;;;;;;;;;;5000455;28;20109;-82
2023/04/22 11:58:06;;;;;;;6.97;3.88;;;;;;;;;;5002305;28;20038;-81
2023/04/22 12:00:40;;;;;;;5.45;3.75;;;;;;;;;;4996241;28;20496;-83
2023/04/22 12:03:07;;;;;;;6.50;3.97;;;;;;;;;;4996791;28;20026;-83
2023/04/22 12:05:39;;;;;;;5.15;3.63;;;;;;;;;;4996688;28;20104;-80
2023/04/22 12:08:15;;;;;;;5.07;3.85;;;;;;;;;;4996684;28;20030;-85
2023/04/22 12:10:51;;;;;;;4.20;3.60;;;;;;;;;;4991776;28;20061;-84
2023/04/22 12:13:24;;;;;;;6.25;3.97;;;;;;;;;;4998735;28;20488;-83
2023/04/22 12:15:59;;;;;;;5.18;4.10;;;;;;;;;;4996848;28;20034;-84
2023/04/22 12:18:52;;;;;;;6.20;4.22;;;;;;;;;;4997782;28;20150;-83
2023/04/22 12:21:21;;;;;;;5.70;4.18;;;;;;;;;;5005285;28;20046;-82
2023/04/22 12:23:51;;;;;;;6.75;4.40;;;;;;;;;;4999537;28;20065;-84
2023/04/22 12:26:20;;;;;;;10.10;5.72;;;;;;;;;;4996591;28;20038;-84
2023/04/22 12:28:46;;;;;;;11.52;7.60;;;;;;;;;;4994486;28;20535;-81
2023/04/22 12:31:13;;;;;;;6.88;3.97;;;;;;;;;;5013023;28;20122;-81
2023/04/22 12:33:42;;;;;;;8.52;5.60;;;;;;;;;;4995262;28;20034;-85
2023/04/22 12:36:09;;;;;;;19.88;11.60;;;;;;;;;;4995098;28;20592;-85
2023/04/22 12:38:36;;;;;;;17.95;11.63;;;;;;;;;;4993351;28;20477;-81
2023/04/22 12:41:04;;;;;;;10.57;5.38;;;;;;;;;;4994379;28;20054;-84
2023/04/22 12:43:35;;;;;;;11.77;7.90;;;;;;;;;;4994579;28;20026;-84
2023/04/22 12:46:07;;;;;;;6.20;4.50;;;;;;;;;;4978629;28;20544;-81
2023/04/22 12:48:35;;;;;;;7.00;4.10;;;;;;;;;;4995170;28;20116;-86
2023/04/22 12:51:02;;;;;;;4.95;4.28;;;;;;;;;;4993430;28;20030;-84
2023/04/22 12:53:28;;;;;;;9.00;6.47;;;;;;;;;;4992579;28;20113;-85
2023/04/22 12:56:00;;;;;;;7.63;4.50;;;;;;;;;;4995348;28;20060;-85
2023/04/22 12:58:26;;;;;;;6.65;4.22;;;;;;;;;;4993994;28;20151;-82
2023/04/22 13:00:53;;;;;;;5.50;4.10;;;;;;;;;;5008909;28;20384;-83
2023/04/22 13:03:23;;;;;;;5.82;3.85;;;;;;;;;;5008716;28;20042;-85
2023/04/22 13:05:51;;;;;;;6.85;4.10;;;;;;;;;;4994427;28;20489;-87
2023/04/22 13:08:18;;;;;;;6.10;4.60;;;;;;;;;;4992859;28;20388;-86
2023/04/22 13:10:47;;;;;;;26.95;16.08;;;;;;;;;;4989111;28;20042;-82
2023/04/22 13:13:12;;;;;;;6.28;4.75;;;;;;;;;;4995530;28;20030;-85
2023/04/22 13:15:38;;;;;;;21.90;14.20;;;;;;;;;;4995056;28;20091;-87
2023/04/22 13:18:04;;;;;;;5.78;4.30;;;;;;;;;;4992928;28;20033;-84
2023/04/22 13:20:30;;;;;;;22.30;13.70;;;;;;;;;;4995802;28;20070;-85
2023/04/22 13:22:55;;;;;;;15.20;9.52;;;;;;;;;;4995476;28;20048;-82
2023/04/22 13:25:21;;;;;;;8.00;5.30;;;;;;;;;;4994665;28;20460;-81
2023/04/22 13:27:49;;;;;;;6.30;4.25;;;;;;;;;;4993402;28;20022;-83
2023/04/22 13:30:15;;;;;;;12.73;8.85;;;;;;;;;;4992630;28;20061;-81
2023/04/22 13:32:41;;;;;;;8.95;5.60;;;;;;;;;;5008874;28;20468;-82
2023/04/22 13:35:08;;;;;;;5.97;4.38;;;;;;;;;;4992375;28;20104;-82
2023/04/22 13:37:34;;;;;;;6.22;4.35;;;;;;;;;;4993626;28;20469;-81
2023/04/22 13:40:04;;;;;;;5.32;4.43;;;;;;;;;;4994015;28;20385;-81
2023/04/22 13:42:30;;;;;;;7.50;5.10;;;;;;;;;;4993675;28;20046;-83
2023/04/22 13:44:56;;;;;;;7.20;4.97;;;;;;;;;;4981086;28;20041;-82
2023/04/22 13:47:24;;;;;;;7.70;4.82;;;;;;;;;;4999424;28;20427;-83
2023/04/22 13:49:51;;;;;;;8.00;5.03;;;;;;;;;;4995384;28;20030;-82
2023/04/22 13:52:17;;;;;;;11.20;5.00;;;;;;;;;;4995447;28;20026;-79
2023/04/22 13:54:44;;;;;;;10.77;6.03;;;;;;;;;;4993315;28;20206;-85
2023/04/22 13:57:12;;;;;;;10.45;5.75;;;;;;;;;;4992771;28;20029;-81
2023/04/22 13:59:40;;;;;;;10.10;5.10;;;;;;;;;;4992000;28;20038;-83
2023/04/22 14:02:07;;;;;;;8.48;5.47;;;;;;;;;;4993806;28;20109;-84
2023/04/22 14:04:34;;;;;;;7.43;5.20;;;;;;;;;;4993255;28;20037;-83
2023/04/22 14:07:01;;;;;;;8.95;5.53;;;;;;;;;;4995591;28;20358;-85
2023/04/22 14:09:27;;;;;;;7.93;5.40;;;;;;;;;;4994544;28;20098;-85
2023/04/22 14:11:52;;;;;;;6.38;4.40;;;;;;;;;;4994010;28;20518;-83
2023/04/22 14:14:20;;;;;;;7.30;5.22;;;;;;;;;;5008374;28;20444;-85
2023/04/22 14:16:46;;;;;;;8.40;4.85;;;;;;;;;;4992147;28;20471;-83
2023/04/22 14:19:13;;;;;;;6.82;4.57;;;;;;;;;;4993520;28;20033;-84
2023/04/22 14:21:39;;;;;;;8.77;4.97;;;;;;;;;;4990460;28;20045;-81
2023/04/22 14:24:06;;;;;;;7.00;4.80;;;;;;;;;;4991463;28;20038;-83
2023/04/22 14:26:32;;;;;;;9.55;5.25;;;;;;;;;;4974933;28;20034;-79
2023/04/22 14:29:00;;;;;;;6.15;4.43;;;;;;;;;;4991165;28;20125;-80
2023/04/22 14:31:26;;;;;;;7.78;4.82;;;;;;;;;;4992465;28;20391;-80
2023/04/22 14:33:53;;;;;;;8.80;4.90;;;;;;;;;;4991231;28;20026;-80
2023/04/22 14:36:20;;;;;;;5.80;4.40;;;;;;;;;;4990237;28;20159;-79
2023/04/22 14:38:47;;;;;;;8.18;5.40;;;;;;;;;;4991912;28;20480;-80
2023/04/22 14:41:12;;;;;;;6.53;4.80;;;;;;;;;;4992725;28;20105;-81
2023/04/22 14:43:38;;;;;;;8.95;4.47;;;;;;;;;;4996849;28;20063;-79
2023/04/22 14:46:04;;;;;;;8.18;5.32;;;;;;;;;;4991776;28;20030;-79
2023/04/22 14:48:31;;;;;;;8.02;5.55;;;;;;;;;;4990417;28;20034;-79